sensor_id;sensor_type;location;lat;lon;timestamp;pressure;altitude;pressure_sealevel;temperature
65738;BMP280;52478;51.844;6.582;2023-04-03T00:01:58;102705.22;;;21.69
65738;BMP280;52478;51.844;6.582;2023-04-03T00:04:25;102703.69;;;21.68
65738;BMP280;52478;51.844;6.582;2023-04-03T00:06:51;102702.44;;;21.69
65738;BMP280;52478;51.844;6.582;2023-04-03T00:09:18;102714.34;;;21.70
65738;BMP280;52478;51.844;6.582;2023-04-03T00:11:45;102710.00;;;21.69
65738;BMP280;52478;51.844;6.582;2023-04-03T00:14:11;102702.44;;;21.69
65738;BMP280;52478;51.844;6.582;2023-04-03T00:16:39;102701.63;;;21.69
65738;BMP280;52478;51.844;6.582;2023-04-03T00:19:06;102711.25;;;21.68
65738;BMP280;52478;51.844;6.582;2023-04-03T00:21:32;102706.47;;;21.68
65738;BMP280;52478;51.844;6.582;2023-04-03T00:23:59;102702.88;;;21.68
65738;BMP280;52478;51.844;6.582;2023-04-03T00:26:25;102713.28;;;21.67
65738;BMP280;52478;51.844;6.582;2023-04-03T00:28:52;102716.06;;;21.67
65738;BMP280;52478;51.844;6.582;2023-04-03T00:31:18;102715.28;;;21.67
65738;BMP280;52478;51.844;6.582;2023-04-03T00:33:46;102715.28;;;21.67
65738;BMP280;52478;51.844;6.582;2023-04-03T00:36:13;102715.28;;;21.67
65738;BMP280;52478;51.844;6.582;2023-04-03T00:38:39;102721.66;;;21.67
65738;BMP280;52478;51.844;6.582;2023-04-03T00:41:06;102732.81;;;21.67
65738;BMP280;52478;51.844;6.582;2023-04-03T00:43:33;102723.66;;;21.67
65738;BMP280;52478;51.844;6.582;2023-04-03T00:46:00;102720.09;;;21.66
65738;BMP280;52478;51.844;6.582;2023-04-03T00:48:29;102718.56;;;21.65
65738;BMP280;52478;51.844;6.582;2023-04-03T00:50:57;102729.22;;;21.67
65738;BMP280;52478;51.844;6.582;2023-04-03T00:53:27;102731.25;;;21.66
65738;BMP280;52478;51.844;6.582;2023-04-03T00:55:55;102729.72;;;21.65
65738;BMP280;52478;51.844;6.582;2023-04-03T00:58:26;102731.25;;;21.66
65738;BMP280;52478;51.844;6.582;2023-04-03T01:00:58;102732.50;;;21.65
65738;BMP280;52478;51.844;6.582;2023-04-03T01:03:25;102731.47;;;21.63
65738;BMP280;52478;51.844;6.582;2023-04-03T01:05:51;102734.53;;;21.65
65738;BMP280;52478;51.844;6.582;2023-04-03T01:08:19;102736.84;;;21.66
65738;BMP280;52478;51.844;6.582;2023-04-03T01:10:46;102736.53;;;21.64
65738;BMP280;52478;51.844;6.582;2023-04-03T01:13:22;102736.53;;;21.64
65738;BMP280;52478;51.844;6.582;2023-04-03T01:15:49;102733.75;;;21.64
65738;BMP280;52478;51.844;6.582;2023-04-03T01:18:16;102733.75;;;21.64
65738;BMP280;52478;51.844;6.582;2023-04-03T01:23:47;102749.69;;;21.64
65738;BMP280;52478;51.844;6.582;2023-04-03T01:26:17;102742.78;;;21.59
65738;BMP280;52478;51.844;6.582;2023-04-03T01:28:43;102738.53;;;21.64
65738;BMP280;52478;51.844;6.582;2023-04-03T01:31:18;102749.69;;;21.64
65738;BMP280;52478;51.844;6.582;2023-04-03T01:33:47;102748.94;;;21.63
65738;BMP280;52478;51.844;6.582;2023-04-03T01:36:16;102753.00;;;21.62
65738;BMP280;52478;51.844;6.582;2023-04-03T01:38:43;102753.00;;;21.62
65738;BMP280;52478;51.844;6.582;2023-04-03T01:41:10;102755.78;;;21.62
65738;BMP280;52478;51.844;6.582;2023-04-03T01:43:36;102753.75;;;21.63
65738;BMP280;52478;51.844;6.582;2023-04-03T01:46:03;102765.66;;;21.63
65738;BMP280;52478;51.844;6.582;2023-04-03T01:48:29;102766.16;;;21.62
65738;BMP280;52478;51.844;6.582;2023-04-03T01:50:57;102759.81;;;21.61
65738;BMP280;52478;51.844;6.582;2023-04-03T01:53:23;102761.06;;;21.60
65738;BMP280;52478;51.844;6.582;2023-04-03T01:55:50;102762.59;;;21.61
65738;BMP280;52478;51.844;6.582;2023-04-03T01:58:16;102766.63;;;21.60
65738;BMP280;52478;51.844;6.582;2023-04-03T02:00:43;102765.38;;;21.61
65738;BMP280;52478;51.844;6.582;2023-04-03T02:03:09;102762.59;;;21.61
65738;BMP280;52478;51.844;6.582;2023-04-03T02:05:36;102761.06;;;21.60
65738;BMP280;52478;51.844;6.582;2023-04-03T02:08:04;102765.09;;;21.59
65738;BMP280;52478;51.844;6.582;2023-04-03T02:10:31;102768.16;;;21.61
65738;BMP280;52478;51.844;6.582;2023-04-03T02:12:57;102767.41;;;21.61
65738;BMP280;52478;51.844;6.582;2023-04-03T02:15:24;102766.63;;;21.60
65738;BMP280;52478;51.844;6.582;2023-04-03T02:17:50;102777.50;;;21.58
65738;BMP280;52478;51.844;6.582;2023-04-03T02:20:17;102772.69;;;21.59
65738;BMP280;52478;51.844;6.582;2023-04-03T02:22:44;102776.22;;;21.59
65738;BMP280;52478;51.844;6.582;2023-04-03T02:25:11;102769.16;;;21.58
65738;BMP280;52478;51.844;6.582;2023-04-03T02:27:38;102773.16;;;21.57
65738;BMP280;52478;51.844;6.582;2023-04-03T02:30:06;102777.50;;;21.58
65738;BMP280;52478;51.844;6.582;2023-04-03T02:32:34;102772.69;;;21.59
65738;BMP280;52478;51.844;6.582;2023-04-03T02:35:01;102770.66;;;21.59
65738;BMP280;52478;51.844;6.582;2023-04-03T02:37:27;102775.47;;;21.59
65738;BMP280;52478;51.844;6.582;2023-04-03T02:39:55;102780.31;;;21.58
65738;BMP280;52478;51.844;6.582;2023-04-03T02:42:23;102773.16;;;21.57
65738;BMP280;52478;51.844;6.582;2023-04-03T02:44:49;102775.94;;;21.57
65738;BMP280;52478;51.844;6.582;2023-04-03T02:47:15;102781.22;;;21.55
65738;BMP280;52478;51.844;6.582;2023-04-03T02:49:42;102775.94;;;21.57
65738;BMP280;52478;51.844;6.582;2023-04-03T02:52:10;102775.19;;;21.57
65738;BMP280;52478;51.844;6.582;2023-04-03T02:54:36;102781.22;;;21.55
65738;BMP280;52478;51.844;6.582;2023-04-03T02:57:03;102777.19;;;21.56
65738;BMP280;52478;51.844;6.582;2023-04-03T02:59:30;102775.66;;;21.55
65738;BMP280;52478;51.844;6.582;2023-04-03T03:01:57;102770.06;;;21.55
65738;BMP280;52478;51.844;6.582;2023-04-03T03:04:23;102772.88;;;21.55
65738;BMP280;52478;51.844;6.582;2023-04-03T03:06:50;102775.66;;;21.55
65738;BMP280;52478;51.844;6.582;2023-04-03T03:09:17;102781.22;;;21.55
65738;BMP280;52478;51.844;6.582;2023-04-03T03:11:43;102775.66;;;21.55
65738;BMP280;52478;51.844;6.582;2023-04-03T03:14:10;102783.25;;;21.55
65738;BMP280;52478;51.844;6.582;2023-04-03T03:16:38;102784.00;;;21.55
65738;BMP280;52478;51.844;6.582;2023-04-03T03:19:04;102790.88;;;21.54
65738;BMP280;52478;51.844;6.582;2023-04-03T03:21:31;102786.03;;;21.55
65738;BMP280;52478;51.844;6.582;2023-04-03T03:23:58;102785.28;;;21.54
65738;BMP280;52478;51.844;6.582;2023-04-03T03:26:24;102796.44;;;21.54
65738;BMP280;52478;51.844;6.582;2023-04-03T03:28:51;102789.31;;;21.53
65738;BMP280;52478;51.844;6.582;2023-04-03T03:31:18;102792.09;;;21.53
65738;BMP280;52478;51.844;6.582;2023-04-03T03:33:45;102789.31;;;21.53
65738;BMP280;52478;51.844;6.582;2023-04-03T03:36:12;102797.69;;;21.53
65738;BMP280;52478;51.844;6.582;2023-04-03T03:38:38;102793.31;;;21.52
65738;BMP280;52478;51.844;6.582;2023-04-03T03:41:05;102798.91;;;21.52
65738;BMP280;52478;51.844;6.582;2023-04-03T03:43:31;102798.16;;;21.52
65738;BMP280;52478;51.844;6.582;2023-04-03T03:45:58;102796.13;;;21.52
65738;BMP280;52478;51.844;6.582;2023-04-03T03:48:24;102798.91;;;21.52
65738;BMP280;52478;51.844;6.582;2023-04-03T03:50:52;102797.38;;;21.51
65738;BMP280;52478;51.844;6.582;2023-04-03T03:53:18;102802.94;;;21.51
65738;BMP280;52478;51.844;6.582;2023-04-03T03:55:45;102808.50;;;21.51
65738;BMP280;52478;51.844;6.582;2023-04-03T03:58:11;102810.06;;;21.52
65738;BMP280;52478;51.844;6.582;2023-04-03T04:00:38;102812.09;;;21.52
65738;BMP280;52478;51.844;6.582;2023-04-03T04:03:04;102812.56;;;21.50
65738;BMP280;52478;51.844;6.582;2023-04-03T04:05:31;102816.16;;;21.51
65738;BMP280;52478;51.844;6.582;2023-04-03T04:07:58;102815.38;;;21.50
65738;BMP280;52478;51.844;6.582;2023-04-03T04:10:25;102812.56;;;21.50
65738;BMP280;52478;51.844;6.582;2023-04-03T04:12:51;102816.59;;;21.49
65738;BMP280;52478;51.844;6.582;2023-04-03T04:15:18;102822.94;;;21.50
65738;BMP280;52478;51.844;6.582;2023-04-03T04:17:46;102827.75;;;21.49
65738;BMP280;52478;51.844;6.582;2023-04-03T04:20:13;102827.75;;;21.49
65738;BMP280;52478;51.844;6.582;2023-04-03T04:22:40;102828.97;;;21.48
65738;BMP280;52478;51.844;6.582;2023-04-03T04:25:08;102827.75;;;21.49
65738;BMP280;52478;51.844;6.582;2023-04-03T04:27:35;102827.75;;;21.49
65738;BMP280;52478;51.844;6.582;2023-04-03T04:30:02;102826.19;;;21.48
65738;BMP280;52478;51.844;6.582;2023-04-03T04:32:28;102833.34;;;21.49
65738;BMP280;52478;51.844;6.582;2023-04-03T04:34:55;102833.78;;;21.48
65738;BMP280;52478;51.844;6.582;2023-04-03T04:37:21;102830.22;;;21.47
65738;BMP280;52478;51.844;6.582;2023-04-03T04:39:48;102830.22;;;21.47
65738;BMP280;52478;51.844;6.582;2023-04-03T04:42:16;102834.28;;;21.46
65738;BMP280;52478;51.844;6.582;2023-04-03T04:44:42;102834.28;;;21.46
65738;BMP280;52478;51.844;6.582;2023-04-03T04:47:09;102835.53;;;21.45
65738;BMP280;52478;51.844;6.582;2023-04-03T04:49:36;102843.88;;;21.45
65738;BMP280;52478;51.844;6.582;2023-04-03T04:52:02;102843.09;;;21.45
65738;BMP280;52478;51.844;6.582;2023-04-03T04:54:29;102841.56;;;21.44
65738;BMP280;52478;51.844;6.582;2023-04-03T04:56:56;102850.72;;;21.44
65738;BMP280;52478;51.844;6.582;2023-04-03T04:59:24;102843.88;;;21.45
65738;BMP280;52478;51.844;6.582;2023-04-03T05:01:50;102845.13;;;21.44
65738;BMP280;52478;51.844;6.582;2023-04-03T05:04:17;102839.25;;;21.42
65738;BMP280;52478;51.844;6.582;2023-04-03T05:06:43;102848.41;;;21.43
65738;BMP280;52478;51.844;6.582;2023-04-03T05:09:10;102855.97;;;21.42
65738;BMP280;52478;51.844;6.582;2023-04-03T05:11:37;102853.19;;;21.42
65738;BMP280;52478;51.844;6.582;2023-04-03T05:14:04;102862.81;;;21.41
65738;BMP280;52478;51.844;6.582;2023-04-03T05:16:33;102860.00;;;21.41
65738;BMP280;52478;51.844;6.582;2023-04-03T05:18:59;102859.22;;;21.41
65738;BMP280;52478;51.844;6.582;2023-04-03T05:21:26;102871.47;;;21.43
65738;BMP280;52478;51.844;6.582;2023-04-03T05:23:57;102868.69;;;21.43
65738;BMP280;52478;51.844;6.582;2023-04-03T05:26:23;102869.44;;;21.44
65738;BMP280;52478;51.844;6.582;2023-04-03T05:28:50;102876.09;;;21.46
65738;BMP280;52478;51.844;6.582;2023-04-03T05:31:17;102875.91;;;21.50
65738;BMP280;52478;51.844;6.582;2023-04-03T05:33:45;102873.88;;;21.50
65738;BMP280;52478;51.844;6.582;2023-04-03T05:36:12;102880.06;;;21.54
65738;BMP280;52478;51.844;6.582;2023-04-03T05:38:39;102873.22;;;21.55
65738;BMP280;52478;51.844;6.582;2023-04-03T05:41:06;102881.41;;;21.59
65738;BMP280;52478;51.844;6.582;2023-04-03T05:43:32;102876.59;;;21.59
65738;BMP280;52478;51.844;6.582;2023-04-03T05:45:59;102882.75;;;21.63
65738;BMP280;52478;51.844;6.582;2023-04-03T05:48:26;102873.94;;;21.65
65738;BMP280;52478;51.844;6.582;2023-04-03T05:50:54;102891.22;;;21.69
65738;BMP280;52478;51.844;6.582;2023-04-03T05:53:22;102882.41;;;21.70
65738;BMP280;52478;51.844;6.582;2023-04-03T05:55:50;102881.16;;;21.71
65738;BMP280;52478;51.844;6.582;2023-04-03T05:58:16;102874.31;;;21.72
65738;BMP280;52478;51.844;6.582;2023-04-03T06:00:43;102884.50;;;21.75
65738;BMP280;52478;51.844;6.582;2023-04-03T06:03:10;102882.03;;;21.77
65738;BMP280;52478;51.844;6.582;2023-04-03T06:05:37;102882.28;;;21.79
65738;BMP280;52478;51.844;6.582;2023-04-03T06:08:05;102886.63;;;21.80
65738;BMP280;52478;51.844;6.582;2023-04-03T06:10:31;102892.03;;;21.84
65738;BMP280;52478;51.844;6.582;2023-04-03T06:12:58;102892.78;;;21.84
65738;BMP280;52478;51.844;6.582;2023-04-03T06:15:25;102905.00;;;21.87
65738;BMP280;52478;51.844;6.582;2023-04-03T06:17:51;102901.75;;;21.88
65738;BMP280;52478;51.844;6.582;2023-04-03T06:20:18;102908.88;;;21.89
65738;BMP280;52478;51.844;6.582;2023-04-03T06:22:44;102900.00;;;21.91
65738;BMP280;52478;51.844;6.582;2023-04-03T06:25:12;102909.16;;;21.91
65738;BMP280;52478;51.844;6.582;2023-04-03T06:27:38;102904.84;;;21.90
65738;BMP280;52478;51.844;6.582;2023-04-03T06:30:06;102911.00;;;21.94
65738;BMP280;52478;51.844;6.582;2023-04-03T06:32:33;102916.88;;;21.96
65738;BMP280;52478;51.844;6.582;2023-04-03T06:35:00;102918.69;;;21.99
65738;BMP280;52478;51.844;6.582;2023-04-03T06:37:26;102910.78;;;21.98
65738;BMP280;52478;51.844;6.582;2023-04-03T06:39:54;102919.75;;;22.02
65738;BMP280;52478;51.844;6.582;2023-04-03T06:42:22;102920.50;;;22.02
65738;BMP280;52478;51.844;6.582;2023-04-03T06:44:49;102915.53;;;22.06
65738;BMP280;52478;51.844;6.582;2023-04-03T06:47:16;102912.13;;;22.02
65738;BMP280;52478;51.844;6.582;2023-04-03T06:49:43;102920.13;;;22.09
65738;BMP280;52478;51.844;6.582;2023-04-03T06:52:10;102918.09;;;22.10
65738;BMP280;52478;51.844;6.582;2023-04-03T06:54:37;102920.13;;;22.09
65738;BMP280;52478;51.844;6.582;2023-04-03T06:57:04;102926.81;;;22.12
65738;BMP280;52478;51.844;6.582;2023-04-03T06:59:32;102929.38;;;22.15
65738;BMP280;52478;51.844;6.582;2023-04-03T07:01:58;102932.97;;;22.16
65738;BMP280;52478;51.844;6.582;2023-04-03T07:04:25;102935.25;;;22.17
65738;BMP280;52478;51.844;6.582;2023-04-03T07:06:51;102936.34;;;22.20
65738;BMP280;52478;51.844;6.582;2023-04-03T07:09:18;102937.38;;;22.22
65738;BMP280;52478;51.844;6.582;2023-04-03T07:11:45;102930.56;;;22.23
65738;BMP280;52478;51.844;6.582;2023-04-03T07:14:11;102936.41;;;22.25
65738;BMP280;52478;51.844;6.582;2023-04-03T07:16:39;102942.31;;;22.27
65738;BMP280;52478;51.844;6.582;2023-04-03T07:19:06;102946.91;;;22.30
65738;BMP280;52478;51.844;6.582;2023-04-03T07:21:34;102952.78;;;22.32
65738;BMP280;52478;51.844;6.582;2023-04-03T07:24:00;102957.09;;;22.33
65738;BMP280;52478;51.844;6.582;2023-04-03T07:26:27;102960.19;;;22.35
65738;BMP280;52478;51.844;6.582;2023-04-03T07:28:53;102952.91;;;22.37
65738;BMP280;52478;51.844;6.582;2023-04-03T07:31:20;102953.94;;;22.40
65738;BMP280;52478;51.844;6.582;2023-04-03T07:33:48;102955.75;;;22.43
65738;BMP280;52478;51.844;6.582;2023-04-03T07:36:17;102954.25;;;22.42
65738;BMP280;52478;51.844;6.582;2023-04-03T07:38:44;102958.91;;;22.07
65738;BMP280;52478;51.844;6.582;2023-04-03T07:41:12;102967.28;;;21.69
65738;BMP280;52478;51.844;6.582;2023-04-03T07:43:40;102966.97;;;21.67
65738;BMP280;52478;51.844;6.582;2023-04-03T07:46:07;102968.19;;;21.52
65738;BMP280;52478;51.844;6.582;2023-04-03T07:48:34;102964.69;;;21.66
65738;BMP280;52478;51.844;6.582;2023-04-03T07:51:03;102960.69;;;21.81
65738;BMP280;52478;51.844;6.582;2023-04-03T07:53:30;102965.53;;;21.48
65738;BMP280;52478;51.844;6.582;2023-04-03T07:55:57;102964.88;;;21.62
65738;BMP280;52478;51.844;6.582;2023-04-03T07:58:24;102971.84;;;21.34
65738;BMP280;52478;51.844;6.582;2023-04-03T08:00:50;102970.88;;;21.37
65738;BMP280;52478;51.844;6.582;2023-04-03T08:03:17;102969.41;;;21.27
65738;BMP280;52478;51.844;6.582;2023-04-03T08:05:44;102966.34;;;20.84
65738;BMP280;52478;51.844;6.582;2023-04-03T08:08:14;102971.91;;;21.17
65738;BMP280;52478;51.844;6.582;2023-04-03T08:10:41;102971.03;;;20.60
65738;BMP280;52478;51.844;6.582;2023-04-03T08:13:09;102970.00;;;20.99
65738;BMP280;52478;51.844;6.582;2023-04-03T08:15:35;102976.50;;;21.28
65738;BMP280;52478;51.844;6.582;2023-04-03T08:18:03;102985.47;;;21.32
65738;BMP280;52478;51.844;6.582;2023-04-03T08:20:29;102982.22;;;21.34
65738;BMP280;52478;51.844;6.582;2023-04-03T08:22:55;102985.38;;;21.50
65738;BMP280;52478;51.844;6.582;2023-04-03T08:25:23;102976.66;;;21.57
65738;BMP280;52478;51.844;6.582;2023-04-03T08:27:50;102972.31;;;21.56
65738;BMP280;52478;51.844;6.582;2023-04-03T08:30:17;102980.06;;;21.52
65738;BMP280;52478;51.844;6.582;2023-04-03T08:32:43;102974.00;;;21.39
65738;BMP280;52478;51.844;6.582;2023-04-03T08:35:10;102971.91;;;21.17
65738;BMP280;52478;51.844;6.582;2023-04-03T08:37:37;102972.81;;;21.31
65738;BMP280;52478;51.844;6.582;2023-04-03T08:40:05;102968.84;;;21.47
65738;BMP280;52478;51.844;6.582;2023-04-03T08:42:41;102974.22;;;21.50
65738;BMP280;52478;51.844;6.582;2023-04-03T08:45:14;102978.09;;;21.20
65738;BMP280;52478;51.844;6.582;2023-04-03T08:47:47;102972.50;;;21.20
65738;BMP280;52478;51.844;6.582;2023-04-03T08:50:19;102974.63;;;21.34
65738;BMP280;52478;51.844;6.582;2023-04-03T08:52:49;102981.44;;;21.33
65738;BMP280;52478;51.844;6.582;2023-04-03T08:55:22;102979.66;;;21.22
65738;BMP280;52478;51.844;6.582;2023-04-03T08:57:57;102985.91;;;21.08
65738;BMP280;52478;51.844;6.582;2023-04-03T09:00:27;102980.53;;;20.95
65738;BMP280;52478;51.844;6.582;2023-04-03T09:02:55;102980.56;;;20.86
65738;BMP280;52478;51.844;6.582;2023-04-03T09:05:32;102978.91;;;20.71
65738;BMP280;52478;51.844;6.582;2023-04-03T09:08:04;102977.69;;;20.72
65738;BMP280;52478;51.844;6.582;2023-04-03T09:10:34;102974.31;;;20.50
65738;BMP280;52478;51.844;6.582;2023-04-03T09:13:07;102979.13;;;20.31
65738;BMP280;52478;51.844;6.582;2023-04-03T09:15:36;102970.16;;;20.18
65738;BMP280;52478;51.844;6.582;2023-04-03T09:18:05;102974.94;;;20.36
65738;BMP280;52478;51.844;6.582;2023-04-03T09:20:43;102988.53;;;20.34
65738;BMP280;52478;51.844;6.582;2023-04-03T09:23:19;102987.00;;;20.33
65738;BMP280;52478;51.844;6.582;2023-04-03T09:25:49;102978.97;;;20.44
65738;BMP280;52478;51.844;6.582;2023-04-03T09:28:18;102982.06;;;20.19
65738;BMP280;52478;51.844;6.582;2023-04-03T09:30:45;102987.91;;;20.30
65738;BMP280;52478;51.844;6.582;2023-04-03T09:33:12;102988.41;;;20.37
65738;BMP280;52478;51.844;6.582;2023-04-03T09:35:40;102995.34;;;20.06
65738;BMP280;52478;51.844;6.582;2023-04-03T09:38:17;102986.81;;;19.65
65738;BMP280;52478;51.844;6.582;2023-04-03T09:40:45;102979.56;;;19.67
65738;BMP280;52478;51.844;6.582;2023-04-03T09:43:25;102967.50;;;19.79
65738;BMP280;52478;51.844;6.582;2023-04-03T09:45:53;102980.72;;;19.57
65738;BMP280;52478;51.844;6.582;2023-04-03T09:48:21;102965.34;;;19.83
65738;BMP280;52478;51.844;6.582;2023-04-03T09:50:59;102964.13;;;19.93
65738;BMP280;52478;51.844;6.582;2023-04-03T09:53:30;102972.63;;;19.99
65738;BMP280;52478;51.844;6.582;2023-04-03T09:55:58;102969.63;;;19.66
65738;BMP280;52478;51.844;6.582;2023-04-03T09:58:28;102965.00;;;19.54
65738;BMP280;52478;51.844;6.582;2023-04-03T10:00:57;102959.38;;;19.36
65738;BMP280;52478;51.844;6.582;2023-04-03T10:03:28;102970.13;;;19.25
65738;BMP280;52478;51.844;6.582;2023-04-03T10:05:55;102954.38;;;19.22
65738;BMP280;52478;51.844;6.582;2023-04-03T10:08:25;102968.28;;;18.92
65738;BMP280;52478;51.844;6.582;2023-04-03T10:11:07;102959.78;;;18.87
65738;BMP280;52478;51.844;6.582;2023-04-03T10:13:49;102959.78;;;18.87
65738;BMP280;52478;51.844;6.582;2023-04-03T10:16:18;102945.31;;;18.92
65738;BMP280;52478;51.844;6.582;2023-04-03T10:18:49;102950.00;;;19.03
65738;BMP280;52478;51.844;6.582;2023-04-03T10:21:28;102949.44;;;18.87
65738;BMP280;52478;51.844;6.582;2023-04-03T10:24:05;102947.44;;;18.88
65738;BMP280;52478;51.844;6.582;2023-04-03T10:26:40;102945.31;;;18.92
65738;BMP280;52478;51.844;6.582;2023-04-03T10:29:15;102942.19;;;18.81
65738;BMP280;52478;51.844;6.582;2023-04-03T10:31:53;102939.91;;;18.88
65738;BMP280;52478;51.844;6.582;2023-04-03T10:34:25;102932.28;;;18.80
65738;BMP280;52478;51.844;6.582;2023-04-03T10:37:01;102930.91;;;18.54
65738;BMP280;52478;51.844;6.582;2023-04-03T10:39:35;102921.59;;;18.48
65738;BMP280;52478;51.844;6.582;2023-04-03T10:42:08;102919.84;;;18.32
65738;BMP280;52478;51.844;6.582;2023-04-03T10:44:48;102915.16;;;18.51
65738;BMP280;52478;51.844;6.582;2023-04-03T10:47:20;102918.53;;;18.46
65738;BMP280;52478;51.844;6.582;2023-04-03T10:49:54;102905.38;;;18.37
65738;BMP280;52478;51.844;6.582;2023-04-03T10:52:22;102924.31;;;18.17
65738;BMP280;52478;51.844;6.582;2023-04-03T10:54:59;102923.94;;;18.28
65738;BMP280;52478;51.844;6.582;2023-04-03T10:57:30;102916.28;;;18.10
65738;BMP280;52478;51.844;6.582;2023-04-03T11:00:01;102914.06;;;18.27
65738;BMP280;52478;51.844;6.582;2023-04-03T11:02:30;102916.72;;;18.30
65738;BMP280;52478;51.844;6.582;2023-04-03T11:05:00;102906.41;;;17.97
65738;BMP280;52478;51.844;6.582;2023-04-03T11:07:30;102912.16;;;18.02
65738;BMP280;52478;51.844;6.582;2023-04-03T11:10:02;102898.94;;;17.85
65738;BMP280;52478;51.844;6.582;2023-04-03T11:12:36;102897.72;;;17.86
65738;BMP280;52478;51.844;6.582;2023-04-03T11:15:12;102894.72;;;17.80
65738;BMP280;52478;51.844;6.582;2023-04-03T11:17:41;102892.09;;;17.77
65738;BMP280;52478;51.844;6.582;2023-04-03T11:20:16;102887.00;;;17.75
65738;BMP280;52478;51.844;6.582;2023-04-03T11:22:48;102888.19;;;17.87
65738;BMP280;52478;51.844;6.582;2023-04-03T11:25:20;102891.47;;;17.61
65738;BMP280;52478;51.844;6.582;2023-04-03T11:27:50;102894.31;;;17.69
65738;BMP280;52478;51.844;6.582;2023-04-03T11:30:22;102890.31;;;17.70
65738;BMP280;52478;51.844;6.582;2023-04-03T11:33:16;102894.38;;;17.57
65738;BMP280;52478;51.844;6.582;2023-04-03T11:35:48;102887.69;;;17.55
65738;BMP280;52478;51.844;6.582;2023-04-03T11:38:21;102889.59;;;17.45
65738;BMP280;52478;51.844;6.582;2023-04-03T11:40:50;102884.97;;;17.30
65738;BMP280;52478;51.844;6.582;2023-04-03T11:43:22;102892.25;;;17.36
65738;BMP280;52478;51.844;6.582;2023-04-03T11:45:55;102885.22;;;17.35
65738;BMP280;52478;51.844;6.582;2023-04-03T11:48:51;102884.28;;;17.38
65738;BMP280;52478;51.844;6.582;2023-04-03T11:51:39;102879.66;;;17.35
65738;BMP280;52478;51.844;6.582;2023-04-03T12:04:05;102880.84;;;17.22
65738;BMP280;52478;51.844;6.582;2023-04-03T12:07:12;102876.34;;;17.15
65738;BMP280;52478;51.844;6.582;2023-04-03T12:09:57;102877.66;;;16.98
65738;BMP280;52478;51.844;6.582;2023-04-03T12:12:35;102873.44;;;17.06
65738;BMP280;52478;51.844;6.582;2023-04-03T12:15:38;102869.03;;;16.96
65738;BMP280;52478;51.844;6.582;2023-04-03T12:21:20;102860.59;;;17.37
65738;BMP280;52478;51.844;6.582;2023-04-03T12:26:43;102835.16;;;17.30
65738;BMP280;52478;51.844;6.582;2023-04-03T12:29:15;102835.47;;;17.44
65738;BMP280;52478;51.844;6.582;2023-04-03T12:31:50;102831.44;;;17.45
65738;BMP280;52478;51.844;6.582;2023-04-03T12:34:36;102831.34;;;17.36
65738;BMP280;52478;51.844;6.582;2023-04-03T12:37:20;102825.91;;;17.45
65738;BMP280;52478;51.844;6.582;2023-04-03T12:39:53;102828.44;;;17.52
65738;BMP280;52478;51.844;6.582;2023-04-03T12:42:37;102817.44;;;17.61
65738;BMP280;52478;51.844;6.582;2023-04-03T12:45:16;102828.03;;;17.41
65738;BMP280;52478;51.844;6.582;2023-04-03T12:47:44;102832.00;;;17.40
65738;BMP280;52478;51.844;6.582;2023-04-03T12:50:21;102836.19;;;17.45
65738;BMP280;52478;51.844;6.582;2023-04-03T12:52:54;102833.03;;;17.09
65738;BMP280;52478;51.844;6.582;2023-04-03T12:55:22;102833.41;;;16.98
65738;BMP280;52478;51.844;6.582;2023-04-03T12:57:49;102825.00;;;16.89
65738;BMP280;52478;51.844;6.582;2023-04-03T13:00:21;102825.97;;;17.08
65738;BMP280;52478;51.844;6.582;2023-04-03T13:02:48;102820.56;;;17.04
65738;BMP280;52478;51.844;6.582;2023-04-03T13:05:18;102807.72;;;16.85
65738;BMP280;52478;51.844;6.582;2023-04-03T13:07:48;102832.06;;;17.15
65738;BMP280;52478;51.844;6.582;2023-04-03T13:10:17;102813.69;;;16.96
65738;BMP280;52478;51.844;6.582;2023-04-03T13:12:46;102818.91;;;16.94
65738;BMP280;52478;51.844;6.582;2023-04-03T13:15:15;102820.56;;;17.04
65738;BMP280;52478;51.844;6.582;2023-04-03T13:17:43;102828.31;;;17.09
65738;BMP280;52478;51.844;6.582;2023-04-03T13:20:12;102805.28;;;16.87
65738;BMP280;52478;51.844;6.582;2023-04-03T13:22:45;102805.81;;;16.82
65738;BMP280;52478;51.844;6.582;2023-04-03T13:25:13;102799.72;;;16.87
65738;BMP280;52478;51.844;6.582;2023-04-03T13:27:42;102798.63;;;16.97
65738;BMP280;52478;51.844;6.582;2023-04-03T13:30:24;102787.00;;;17.02
65738;BMP280;52478;51.844;6.582;2023-04-03T13:32:51;102790.34;;;17.10
65738;BMP280;52478;51.844;6.582;2023-04-03T13:35:26;102788.91;;;17.05
65738;BMP280;52478;51.844;6.582;2023-04-03T13:37:54;102794.34;;;16.96
65738;BMP280;52478;51.844;6.582;2023-04-03T13:40:21;102787.91;;;16.99
65738;BMP280;52478;51.844;6.582;2023-04-03T13:42:59;102797.75;;;16.88
65738;BMP280;52478;51.844;6.582;2023-04-03T13:45:27;102788.91;;;17.05
65738;BMP280;52478;51.844;6.582;2023-04-03T13:48:08;102795.13;;;16.84
65738;BMP280;52478;51.844;6.582;2023-04-03T13:50:51;102792.88;;;17.04
65738;BMP280;52478;51.844;6.582;2023-04-03T13:53:18;102780.94;;;17.07
65738;BMP280;52478;51.844;6.582;2023-04-03T13:56:06;102781.25;;;17.09
65738;BMP280;52478;51.844;6.582;2023-04-03T13:58:35;102782.66;;;17.26
65738;BMP280;52478;51.844;6.582;2023-04-03T14:01:09;102767.63;;;17.02
65738;BMP280;52478;51.844;6.582;2023-04-03T14:03:41;102763.91;;;16.96
65738;BMP280;52478;51.844;6.582;2023-04-03T14:06:12;102769.19;;;17.03
65738;BMP280;52478;51.844;6.582;2023-04-03T14:08:39;102767.56;;;16.93
65738;BMP280;52478;51.844;6.582;2023-04-03T14:11:09;102757.03;;;16.88
65738;BMP280;52478;51.844;6.582;2023-04-03T14:13:40;102760.25;;;16.99
65738;BMP280;52478;51.844;6.582;2023-04-03T14:16:07;102761.66;;;16.91
65738;BMP280;52478;51.844;6.582;2023-04-03T14:18:33;102744.53;;;16.84
65738;BMP280;52478;51.844;6.582;2023-04-03T14:21:02;102750.16;;;16.93
65738;BMP280;52478;51.844;6.582;2023-04-03T14:23:28;102755.13;;;16.98
65738;BMP280;52478;51.844;6.582;2023-04-03T14:25:55;102747.22;;;17.21
65738;BMP280;52478;51.844;6.582;2023-04-03T14:28:23;102749.34;;;17.17